createdAt,value
2022-09-28T00:01:16.935Z,13.54
2022-09-28T00:03:48.812Z,13.51
2022-09-28T00:06:19.004Z,13.45
2022-09-28T00:08:47.576Z,13.45
2022-09-28T00:11:21.044Z,13.44
2022-09-28T00:13:53.924Z,13.40
2022-09-28T00:16:24.019Z,13.42
2022-09-28T00:18:52.568Z,13.42
2022-09-28T00:21:24.640Z,13.38
2022-09-28T00:24:12.921Z,13.31
2022-09-28T00:26:51.998Z,13.24
2022-09-28T00:29:21.938Z,13.24
2022-09-28T00:31:52.805Z,13.24
2022-09-28T00:34:20.500Z,13.27
2022-09-28T00:36:48.575Z,13.30
2022-09-28T00:39:19.068Z,13.37
2022-09-28T00:41:46.860Z,13.43
2022-09-28T00:44:31.049Z,13.54
2022-09-28T00:47:15.508Z,13.61
2022-09-28T00:49:50.005Z,13.58
2022-09-28T00:52:45.988Z,13.53
2022-09-28T00:55:17.970Z,13.51
2022-09-28T00:57:50.679Z,13.42
2022-09-28T01:00:19.093Z,13.39
2022-09-28T01:02:47.752Z,13.37
2022-09-28T01:05:15.368Z,13.33
2022-09-28T01:07:47.524Z,13.28
2022-09-28T01:10:15.459Z,13.29
2022-09-28T01:12:42.443Z,13.23
2022-09-28T01:15:10.640Z,13.21
2022-09-28T01:17:50.365Z,13.21
2022-09-28T01:20:31.351Z,13.21
2022-09-28T01:23:31.011Z,13.15
2022-09-28T01:26:10.883Z,13.10
2022-09-28T01:28:40.015Z,13.06
2022-09-28T01:31:11.405Z,13.02
2022-09-28T01:33:48.674Z,13.01
2022-09-28T01:36:28.429Z,13.02
2022-09-28T01:39:01.338Z,13.09
2022-09-28T01:41:30.516Z,13.08
2022-09-28T01:44:02.996Z,13.13
2022-09-28T01:46:42.162Z,13.19
2022-09-28T01:49:15.759Z,13.15
2022-09-28T01:52:19.549Z,13.22
2022-09-28T01:54:55.382Z,13.20
2022-09-28T01:57:44.730Z,13.27
2022-09-28T02:00:14.732Z,13.28
2022-09-28T02:02:48.880Z,13.30
2022-09-28T02:05:20.236Z,13.31
2022-09-28T02:08:02.815Z,13.38
2022-09-28T02:10:35.955Z,13.39
2022-09-28T02:13:09.717Z,13.44
2022-09-28T02:15:49.040Z,13.50
2022-09-28T02:18:16.787Z,13.50
2022-09-28T02:20:51.567Z,13.55
2022-09-28T02:23:23.987Z,13.58
2022-09-28T02:26:00.471Z,13.59
2022-09-28T02:28:28.123Z,13.62
2022-09-28T02:30:55.406Z,13.65
2022-09-28T02:33:28.382Z,13.75
2022-09-28T02:35:56.156Z,13.79
2022-09-28T02:38:24.129Z,13.80
2022-09-28T02:41:04.789Z,13.87
2022-09-28T02:43:48.941Z,13.86
2022-09-28T02:46:48.433Z,13.85
2022-09-28T02:49:47.780Z,13.85
2022-09-28T02:52:33.551Z,13.85
2022-09-28T02:55:03.808Z,13.89
2022-09-28T02:57:56.756Z,13.89
2022-09-28T03:00:24.562Z,13.89
2022-09-28T03:06:52.384Z,13.88
2022-09-28T03:09:42.721Z,13.86
2022-09-28T03:12:14.121Z,13.81
2022-09-28T03:14:42.404Z,13.77
2022-09-28T03:17:09.915Z,13.70
2022-09-28T03:19:44.017Z,13.71
2022-09-28T03:22:11.252Z,13.68
2022-09-28T03:24:38.393Z,13.66
2022-09-28T03:27:11.216Z,13.66
2022-09-28T03:29:39.411Z,13.64
2022-09-28T03:32:06.730Z,13.66
2022-09-28T03:34:33.806Z,13.66
2022-09-28T03:37:01.974Z,13.69
2022-09-28T03:39:30.999Z,13.68
2022-09-28T03:42:00.536Z,13.69
2022-09-28T03:44:27.793Z,13.69
2022-09-28T03:46:54.842Z,13.69
2022-09-28T03:49:22.417Z,13.67
2022-09-28T03:51:50.243Z,13.65
2022-09-28T03:54:17.619Z,13.66
2022-09-28T03:56:44.788Z,13.62
2022-09-28T03:59:12.092Z,13.60
2022-09-28T04:01:39.385Z,13.63
2022-09-28T04:04:06.523Z,13.64
2022-09-28T04:06:34.541Z,13.68
2022-09-28T04:09:01.903Z,13.73
2022-09-28T04:11:42.841Z,13.76
2022-09-28T04:14:16.959Z,13.84
2022-09-28T04:16:44.394Z,13.85
2022-09-28T04:19:12.622Z,13.86
2022-09-28T04:21:46.826Z,13.85
2022-09-28T04:24:16.789Z,13.88
2022-09-28T04:26:46.546Z,13.92
2022-09-28T04:29:16.567Z,13.93
2022-09-28T04:31:52.152Z,13.95
2022-09-28T04:34:22.483Z,13.97
2022-09-28T04:36:50.108Z,14.01
2022-09-28T04:39:18.350Z,14.00
2022-09-28T04:41:48.314Z,14.08
2022-09-28T04:44:15.973Z,14.06
2022-09-28T04:46:47.095Z,14.10
2022-09-28T04:49:14.839Z,14.15
2022-09-28T04:51:42.238Z,14.18
2022-09-28T04:54:09.292Z,14.20
2022-09-28T04:56:36.605Z,14.17
2022-09-28T04:59:04.573Z,14.20
2022-09-28T05:01:31.639Z,14.24
2022-09-28T05:04:02.590Z,14.39
2022-09-28T05:06:30.853Z,14.54
2022-09-28T05:09:00.082Z,14.67
2022-09-28T05:11:28.092Z,14.77
2022-09-28T05:13:55.340Z,14.80
2022-09-28T05:16:23.140Z,14.83
2022-09-28T05:18:57.541Z,14.94
2022-09-28T05:24:08.934Z,15.16
2022-09-28T05:26:40.790Z,15.31
2022-09-28T05:29:08.225Z,15.45
2022-09-28T05:34:18.028Z,15.73
2022-09-28T05:37:22.217Z,15.81
2022-09-28T05:39:53.024Z,15.86
2022-09-28T05:42:27.285Z,15.87
2022-09-28T05:44:54.777Z,15.83
2022-09-28T05:47:22.388Z,15.86
2022-09-28T05:49:50.531Z,15.81
2022-09-28T05:52:18.511Z,15.78
2022-09-28T05:54:57.527Z,15.76
2022-09-28T05:57:32.353Z,15.70
2022-09-28T05:59:59.512Z,15.66
2022-09-28T06:02:42.026Z,15.56
2022-09-28T06:05:28.543Z,15.52
2022-09-28T06:07:57.951Z,15.50
2022-09-28T06:10:27.786Z,15.50
2022-09-28T06:12:56.930Z,15.52
2022-09-28T06:15:26.882Z,15.49
2022-09-28T06:18:10.828Z,15.51
2022-09-28T06:20:43.968Z,15.52
2022-09-28T06:26:04.831Z,15.65
2022-09-28T06:28:31.937Z,15.69
2022-09-28T06:31:02.013Z,15.81
2022-09-28T06:36:25.958Z,16.20
2022-09-28T06:38:53.351Z,16.48
2022-09-28T06:41:20.353Z,16.69
2022-09-28T06:43:48.615Z,16.83
2022-09-28T06:46:16.088Z,16.94
2022-09-28T06:48:45.128Z,16.97
2022-09-28T06:51:13.274Z,16.97
2022-09-28T06:53:44.496Z,16.98
2022-09-28T06:56:15.861Z,16.99
2022-09-28T06:58:45.786Z,16.87
2022-09-28T07:01:29.758Z,16.82
2022-09-28T07:04:04.778Z,16.70
2022-09-28T07:06:31.735Z,16.69
2022-09-28T07:09:21.693Z,16.72
2022-09-28T07:11:51.996Z,16.75
2022-09-28T07:14:43.409Z,16.80
2022-09-28T07:17:14.488Z,16.87
2022-09-28T07:19:47.185Z,16.97
2022-09-28T07:22:19.327Z,16.98
2022-09-28T07:25:04.705Z,17.20
2022-09-28T07:33:18.975Z,17.84
2022-09-28T07:35:55.827Z,18.04
2022-09-28T07:38:26.151Z,18.23
2022-09-28T07:41:11.778Z,18.43
2022-09-28T07:49:12.619Z,18.91
2022-09-28T07:51:39.876Z,18.94
2022-09-28T07:54:06.913Z,19.07
2022-09-28T07:56:35.038Z,19.16
2022-09-28T07:59:01.990Z,19.06
2022-09-28T08:01:31.051Z,19.01
2022-09-28T08:03:58.742Z,18.93
2022-09-28T08:06:30.208Z,18.95
2022-09-28T08:09:10.592Z,18.86
2022-09-28T08:11:39.390Z,18.81
2022-09-28T08:14:06.551Z,18.71
2022-09-28T08:16:33.636Z,18.64
2022-09-28T08:19:03.353Z,18.57
2022-09-28T08:21:48.559Z,18.53
2022-09-28T08:24:31.369Z,18.50
2022-09-28T08:27:05.126Z,18.31
2022-09-28T08:29:51.129Z,18.31
2022-09-28T08:32:21.237Z,18.27
2022-09-28T08:34:48.766Z,18.25
2022-09-28T08:37:15.948Z,18.28
2022-09-28T08:39:43.315Z,18.23
2022-09-28T08:42:29.479Z,18.25
2022-09-28T08:45:00.313Z,18.16
2022-09-28T08:48:09.571Z,18.10
2022-09-28T08:50:48.685Z,18.07
2022-09-28T08:53:25.354Z,18.05
2022-09-28T08:55:53.015Z,18.11
2022-09-28T09:01:16.836Z,18.45
2022-09-28T09:03:47.109Z,19.00
2022-09-28T09:06:45.856Z,19.94
2022-09-28T09:09:22.444Z,21.05
2022-09-28T09:11:57.467Z,21.14
2022-09-28T09:14:36.665Z,20.95
2022-09-28T09:17:22.764Z,20.75
2022-09-28T09:19:55.508Z,20.48
2022-09-28T09:22:33.389Z,20.45
2022-09-28T09:25:19.205Z,20.42
2022-09-28T09:27:56.045Z,20.75
2022-09-28T09:30:25.495Z,21.57
2022-09-28T09:33:13.276Z,22.67
2022-09-28T09:35:40.304Z,24.03
2022-09-28T09:38:33.147Z,24.84
2022-09-28T09:41:19.229Z,24.48
2022-09-28T09:44:13.623Z,24.59
2022-09-28T09:46:44.685Z,23.86
2022-09-28T09:49:21.172Z,24.38
2022-09-28T09:52:30.139Z,25.49
2022-09-28T09:55:10.473Z,26.93
2022-09-28T09:57:45.818Z,27.11
2022-09-28T10:00:15.185Z,27.28
2022-09-28T10:02:45.494Z,26.61
2022-09-28T10:05:12.623Z,25.27
2022-09-28T10:07:45.098Z,24.57
2022-09-28T10:10:37.371Z,24.56
2022-09-28T10:13:05.488Z,24.83
2022-09-28T10:15:39.646Z,24.70
2022-09-28T10:18:12.427Z,24.09
2022-09-28T10:20:42.371Z,23.12
2022-09-28T10:23:17.825Z,22.63
2022-09-28T10:25:48.087Z,22.27
2022-09-28T10:28:23.593Z,22.22
2022-09-28T10:30:51.466Z,22.21
2022-09-28T10:33:33.512Z,22.32
2022-09-28T10:36:07.087Z,22.32
2022-09-28T10:38:36.120Z,22.17
2022-09-28T10:41:11.136Z,21.97
2022-09-28T10:44:06.343Z,21.72
2022-09-28T10:46:35.309Z,21.53
2022-09-28T10:49:05.074Z,21.54
2022-09-28T10:51:52.199Z,21.30
2022-09-28T10:54:23.052Z,21.02
2022-09-28T10:56:51.179Z,21.21
2022-09-28T10:59:30.494Z,21.61
2022-09-28T11:02:17.648Z,21.69
2022-09-28T11:04:55.554Z,21.68
2022-09-28T11:07:27.053Z,21.85
2022-09-28T11:09:55.617Z,21.86
2022-09-28T11:12:38.294Z,21.78
2022-09-28T11:15:17.820Z,21.73
2022-09-28T11:20:45.469Z,21.64
2022-09-28T11:23:23.971Z,21.60
2022-09-28T11:26:18.365Z,21.60
2022-09-28T11:28:51.826Z,21.43
2022-09-28T11:31:31.665Z,21.49
2022-09-28T11:34:27.767Z,21.65
2022-09-28T11:37:13.679Z,21.82
2022-09-28T11:40:08.457Z,21.94
2022-09-28T11:42:45.864Z,22.04
2022-09-28T11:45:23.245Z,22.18
2022-09-28T11:48:04.928Z,22.33
2022-09-28T11:50:52.410Z,22.45
2022-09-28T11:53:23.080Z,22.56
2022-09-28T11:55:58.694Z,22.70
2022-09-28T11:58:47.338Z,22.81
2022-09-28T12:01:44.777Z,22.74
2022-09-28T12:11:44.147Z,22.54
2022-09-28T12:14:29.745Z,22.63
2022-09-28T12:17:20.009Z,22.53
2022-09-28T12:19:55.498Z,22.38
2022-09-28T12:22:33.666Z,22.40
2022-09-28T12:25:05.125Z,22.27
2022-09-28T12:27:47.911Z,22.36
2022-09-28T12:33:17.685Z,22.34
2022-09-28T12:39:35.587Z,22.08
2022-09-28T12:42:35.436Z,21.93
2022-09-28T12:45:38.458Z,21.83
2022-09-28T12:51:25.450Z,21.83
2022-09-28T12:54:11.852Z,21.97
2022-09-28T12:56:48.492Z,22.08
2022-09-28T12:59:25.370Z,22.37
2022-09-28T13:02:09.148Z,22.48
2022-09-28T13:05:13.368Z,22.51
2022-09-28T13:08:04.833Z,22.60
2022-09-28T13:10:55.994Z,22.64
2022-09-28T13:13:41.510Z,22.62
2022-09-28T13:16:18.310Z,22.52
2022-09-28T13:19:08.597Z,22.45
2022-09-28T13:21:48.803Z,22.28
2022-09-28T13:24:32.544Z,22.17
2022-09-28T13:27:15.534Z,22.16
2022-09-28T13:30:14.751Z,22.12
2022-09-28T13:32:44.499Z,22.14
2022-09-28T13:35:15.740Z,22.13
2022-09-28T13:37:43.193Z,22.12
2022-09-28T13:40:11.513Z,22.10
2022-09-28T13:42:44.713Z,22.09
2022-09-28T13:45:15.116Z,22.08
2022-09-28T13:48:11.593Z,22.10
2022-09-28T13:51:06.931Z,22.15
2022-09-28T13:53:52.530Z,22.32
2022-09-28T13:56:27.755Z,22.46
2022-09-28T13:59:17.858Z,22.70
2022-09-28T14:01:56.332Z,22.79
2022-09-28T14:04:44.359Z,22.74
2022-09-28T14:07:20.882Z,22.62
2022-09-28T14:09:49.502Z,22.48
2022-09-28T14:12:35.330Z,22.39
2022-09-28T14:15:06.662Z,22.25
2022-09-28T14:17:54.742Z,22.12
2022-09-28T14:20:24.960Z,21.96
2022-09-28T14:22:55.729Z,21.93
2022-09-28T14:25:25.831Z,21.85
2022-09-28T14:28:21.068Z,21.83
2022-09-28T14:30:53.979Z,21.82
2022-09-28T14:33:22.181Z,21.79
2022-09-28T14:35:56.605Z,21.79
2022-09-28T14:38:47.691Z,21.76
2022-09-28T14:44:23.975Z,21.74
2022-09-28T14:47:25.346Z,21.69
2022-09-28T14:50:01.278Z,21.61
2022-09-28T14:52:41.127Z,21.61
2022-09-28T14:55:14.571Z,21.54
2022-09-28T14:57:43.120Z,21.49
2022-09-28T15:00:20.439Z,21.44
2022-09-28T15:02:52.709Z,21.34
2022-09-28T15:05:44.199Z,21.28
2022-09-28T15:08:12.203Z,21.19
2022-09-28T15:10:48.471Z,21.11
2022-09-28T15:13:36.308Z,21.07
2022-09-28T15:16:13.753Z,20.97
2022-09-28T15:19:30.101Z,20.85
2022-09-28T15:22:17.324Z,20.79
2022-09-28T15:25:14.192Z,20.68
2022-09-28T15:27:43.167Z,20.61
2022-09-28T15:30:26.667Z,20.56
2022-09-28T15:32:57.049Z,20.46
2022-09-28T15:35:27.115Z,20.40
2022-09-28T15:37:55.753Z,20.28
2022-09-28T15:40:32.938Z,20.22
2022-09-28T15:43:00.658Z,20.16
2022-09-28T15:45:37.154Z,20.08
2022-09-28T15:48:31.146Z,20.06
2022-09-28T15:51:13.556Z,20.01
2022-09-28T15:54:07.067Z,19.99
2022-09-28T16:00:36.414Z,19.81
2022-09-28T16:03:09.104Z,19.78
2022-09-28T16:05:46.900Z,19.66
2022-09-28T16:08:25.068Z,19.60
2022-09-28T16:10:57.195Z,19.54
2022-09-28T16:13:58.414Z,19.51
2022-09-28T16:16:31.071Z,19.49
2022-09-28T16:19:03.694Z,19.45
2022-09-28T16:21:37.672Z,19.44
2022-09-28T16:24:05.354Z,19.37
2022-09-28T16:26:40.533Z,19.34
2022-09-28T16:29:28.792Z,19.32
2022-09-28T16:31:56.167Z,19.24
2022-09-28T16:34:27.231Z,19.17
2022-09-28T16:36:54.793Z,19.14
2022-09-28T16:39:25.618Z,19.12
2022-09-28T16:41:56.149Z,19.09
2022-09-28T16:44:26.692Z,19.01
2022-09-28T16:46:57.779Z,18.98
2022-09-28T16:49:26.433Z,18.97
2022-09-28T16:51:53.496Z,18.90
2022-09-28T16:54:44.170Z,18.84
2022-09-28T16:57:17.350Z,18.75
2022-09-28T16:59:47.183Z,18.65
2022-09-28T17:02:45.299Z,18.56
2022-09-28T17:05:08.062Z,18.46
2022-09-28T17:07:35.581Z,18.33
2022-09-28T17:10:12.393Z,18.26
2022-09-28T17:12:40.363Z,18.14
2022-09-28T17:15:07.950Z,18.04
2022-09-28T17:17:35.600Z,17.92
2022-09-28T17:20:22.972Z,17.85
2022-09-28T17:22:54.067Z,17.72
2022-09-28T17:25:26.749Z,17.69
2022-09-28T17:27:57.466Z,17.67
2022-09-28T17:30:26.406Z,17.60
2022-09-28T17:32:53.424Z,17.58
2022-09-28T17:35:25.267Z,17.57
2022-09-28T17:37:54.738Z,17.55
2022-09-28T17:40:28.453Z,17.47
2022-09-28T17:43:01.421Z,17.43
2022-09-28T17:45:36.878Z,17.34
2022-09-28T17:48:15.884Z,17.23
2022-09-28T17:50:46.445Z,17.15
2022-09-28T17:53:15.662Z,17.06
2022-09-28T18:05:40.329Z,16.61
2022-09-28T18:08:23.916Z,16.58
2022-09-28T18:10:51.577Z,16.56
2022-09-28T18:13:19.388Z,16.48
2022-09-28T18:15:50.136Z,16.39
2022-09-28T18:18:24.310Z,16.32
2022-09-28T18:20:52.600Z,16.23
2022-09-28T18:23:19.799Z,16.15
2022-09-28T18:25:47.308Z,16.02
2022-09-28T18:28:22.185Z,15.98
2022-09-28T18:31:04.501Z,15.91
2022-09-28T18:33:34.998Z,15.88
2022-09-28T18:36:04.631Z,15.88
2022-09-28T18:38:40.059Z,15.87
2022-09-28T18:41:14.579Z,15.83
2022-09-28T18:43:43.347Z,15.73
2022-09-28T18:46:12.110Z,15.69
2022-09-28T18:48:40.652Z,15.65
2022-09-28T18:51:13.525Z,15.59
2022-09-28T18:53:41.501Z,15.53
2022-09-28T18:56:20.817Z,15.45
2022-09-28T18:58:52.636Z,15.38
2022-09-28T19:01:30.339Z,15.34
2022-09-28T19:04:05.048Z,15.27
2022-09-28T19:06:42.146Z,15.22
2022-09-28T19:09:11.910Z,15.18
2022-09-28T19:11:39.000Z,15.17
2022-09-28T19:14:11.223Z,15.20
2022-09-28T19:16:38.520Z,15.18
2022-09-28T19:19:06.752Z,15.19
2022-09-28T19:21:33.883Z,15.18
2022-09-28T19:24:02.935Z,15.10
2022-09-28T19:26:34.225Z,15.08
2022-09-28T19:29:05.234Z,15.06
2022-09-28T19:31:32.777Z,15.03
2022-09-28T19:33:59.902Z,14.99
2022-09-28T19:36:29.893Z,15.04
2022-09-28T19:38:58.270Z,15.05
2022-09-28T19:41:46.074Z,15.03
2022-09-28T19:44:29.757Z,14.95
2022-09-28T19:46:59.922Z,14.96
2022-09-28T19:49:33.245Z,14.93
2022-09-28T19:52:16.796Z,14.87
2022-09-28T19:54:58.033Z,14.85
2022-09-28T19:57:27.980Z,14.76
2022-09-28T20:00:00.858Z,14.74
2022-09-28T20:02:29.135Z,14.72
2022-09-28T20:04:56.530Z,14.74
2022-09-28T20:07:23.871Z,14.72
2022-09-28T20:09:51.824Z,14.73
2022-09-28T20:12:19.203Z,14.71
2022-09-28T20:14:46.366Z,14.76
2022-09-28T20:17:13.472Z,14.72
2022-09-28T20:19:41.401Z,14.73
2022-09-28T20:22:08.498Z,14.75
2022-09-28T20:24:35.607Z,14.77
2022-09-28T20:27:02.987Z,14.83
2022-09-28T20:29:32.175Z,14.85
2022-09-28T20:32:03.076Z,14.88
2022-09-28T20:34:32.828Z,14.88
2022-09-28T20:37:00.033Z,14.88
2022-09-28T20:39:27.076Z,14.89
2022-09-28T20:41:57.975Z,14.87
2022-09-28T20:44:26.070Z,14.80
2022-09-28T20:46:56.767Z,14.75
2022-09-28T20:49:24.928Z,14.66
2022-09-28T20:51:51.985Z,14.64
2022-09-28T20:54:23.282Z,14.61
2022-09-28T20:56:52.142Z,14.59
2022-09-28T20:59:23.251Z,14.57
2022-09-28T21:01:52.692Z,14.46
2022-09-28T21:04:20.133Z,14.37
2022-09-28T21:06:47.486Z,14.35
2022-09-28T21:09:15.040Z,14.31
2022-09-28T21:11:43.132Z,14.32
2022-09-28T21:14:10.683Z,14.34
2022-09-28T21:16:39.483Z,14.32
2022-09-28T21:19:16.805Z,14.35
2022-09-28T21:21:43.842Z,14.35
2022-09-28T21:24:11.215Z,14.37
2022-09-28T21:26:39.150Z,14.30
2022-09-28T21:29:11.672Z,14.35
2022-09-28T21:31:46.925Z,14.36
2022-09-28T21:34:19.486Z,14.37
2022-09-28T21:36:48.489Z,14.42
2022-09-28T21:39:16.347Z,14.45
2022-09-28T21:41:46.164Z,14.52
2022-09-28T21:44:14.825Z,14.59
2022-09-28T21:46:42.333Z,14.59
2022-09-28T21:49:34.920Z,14.66
2022-09-28T21:52:03.560Z,14.63
2022-09-28T21:55:22.759Z,14.65
2022-09-28T21:57:51.582Z,14.64
2022-09-28T22:00:25.477Z,14.60
2022-09-28T22:02:53.045Z,14.54
2022-09-28T22:05:20.171Z,14.52
2022-09-28T22:07:47.592Z,14.46
2022-09-28T22:10:16.372Z,14.43
2022-09-28T22:12:43.569Z,14.41
2022-09-28T22:15:11.494Z,14.40
2022-09-28T22:17:38.888Z,14.34
2022-09-28T22:20:08.738Z,14.43
2022-09-28T22:22:35.779Z,14.49
2022-09-28T22:25:03.228Z,14.50
2022-09-28T22:27:31.848Z,14.58
2022-09-28T22:29:58.908Z,14.57
2022-09-28T22:32:28.250Z,14.56
2022-09-28T22:34:55.268Z,14.57
2022-09-28T22:37:22.372Z,14.55
2022-09-28T22:39:49.956Z,14.49
2022-09-28T22:42:17.454Z,14.43
2022-09-28T22:44:44.505Z,14.39
2022-09-28T22:47:12.123Z,14.36
2022-09-28T22:49:39.215Z,14.33
2022-09-28T22:52:06.356Z,14.33
2022-09-28T22:54:34.304Z,14.34
2022-09-28T22:57:01.274Z,14.37
2022-09-28T22:59:28.409Z,14.35
2022-09-28T23:02:00.490Z,14.39
2022-09-28T23:04:27.713Z,14.45
2022-09-28T23:06:56.814Z,14.51
2022-09-28T23:09:31.535Z,14.56
2022-09-28T23:11:58.875Z,14.57
2022-09-28T23:14:28.991Z,14.64
2022-09-28T23:17:03.609Z,14.71
2022-09-28T23:19:31.431Z,14.76
2022-09-28T23:22:02.489Z,14.80
2022-09-28T23:24:49.925Z,14.83
2022-09-28T23:27:19.809Z,14.83
2022-09-28T23:29:48.891Z,14.84
2022-09-28T23:32:16.981Z,14.86
2022-09-28T23:34:44.454Z,14.86
2022-09-28T23:37:11.575Z,14.86
2022-09-28T23:39:39.300Z,14.86
2022-09-28T23:42:06.988Z,14.90
2022-09-28T23:44:35.591Z,14.92
2022-09-28T23:47:03.410Z,14.93
2022-09-28T23:49:30.781Z,14.95
2022-09-28T23:51:57.766Z,14.99
2022-09-28T23:54:24.713Z,15.00
2022-09-28T23:56:52.775Z,15.01
2022-09-28T23:59:20.496Z,15.03
